Time;durP1;ratioP1;P1;durP2;ratioP2;P2;SDS_P1;SDS_P2;PMS_P1;PMS_P2;Temp;Humidity;BMP_temperature;BMP_pressure;BME280_temperature;BME280_humidity;BME280_pressure;Samples;Min_cycle;Max_cycle;Signal;HPM_P1;HPM_P2
2022/03/18 00:01:58;;;;;;;23.88;14.93;;;;;;;5.53;92.29;99018.81;5028031;28;20041;-66
2022/03/18 00:04:24;;;;;;;22.17;13.55;;;;;;;5.59;91.99;99020.78;5028613;28;20719;-67
2022/03/18 00:06:51;;;;;;;23.90;14.93;;;;;;;5.58;91.72;99026.34;5028160;28;20143;-66
2022/03/18 00:09:18;;;;;;;24.30;14.27;;;;;;;5.52;92.40;99024.34;5026964;28;20042;-65
2022/03/18 00:11:45;;;;;;;31.63;16.40;;;;;;;5.48;92.95;99021.19;5028295;28;20053;-65
2022/03/18 00:14:11;;;;;;;26.23;15.40;;;;;;;5.50;92.25;99029.94;5028196;28;20413;-68
2022/03/18 00:16:38;;;;;;;22.52;14.10;;;;;;;5.56;91.92;99026.50;5027723;28;20049;-66
2022/03/18 00:19:05;;;;;;;27.70;15.20;;;;;;;5.57;92.04;99022.81;5027180;28;20432;-65
2022/03/18 00:21:34;;;;;;;22.48;14.35;;;;;;;5.59;91.33;99019.94;5026004;28;20049;-67
2022/03/18 00:24:01;;;;;;;23.55;13.43;;;;;;;5.54;91.75;99030.41;5024040;28;20111;-66
2022/03/18 00:26:28;;;;;;;23.73;13.48;;;;;;;5.49;92.41;99033.59;5023591;28;20061;-66
2022/03/18 00:28:55;;;;;;;24.75;14.82;;;;;;;5.53;91.74;99028.72;5025252;28;20049;-65
2022/03/18 00:31:22;;;;;;;22.17;13.80;;;;;;;5.56;91.32;99026.50;5027615;28;20044;-66
2022/03/18 00:33:49;;;;;;;22.73;13.38;;;;;;;5.64;90.89;99032.84;5026777;28;20512;-67
2022/03/18 00:36:16;;;;;;;24.17;13.23;;;;;;;5.59;90.49;99036.06;5027375;28;20471;-65
2022/03/18 00:38:43;;;;;;;22.67;13.82;;;;;;;5.56;91.48;99036.41;5026415;28;20041;-67
2022/03/18 00:41:09;;;;;;;24.30;14.25;;;;;;;5.52;91.34;99041.31;5026798;28;20041;-66
2022/03/18 00:43:36;;;;;;;20.77;12.73;;;;;;;5.49;91.42;99038.97;5027452;28;20041;-66
2022/03/18 00:46:02;;;;;;;22.08;13.05;;;;;;;5.44;91.53;99036.84;5026913;28;20390;-67
2022/03/18 00:53:59;;;;;;;22.05;13.20;;;;;;;5.53;90.98;99039.47;5026463;28;20038;-66
2022/03/18 00:56:26;;;;;;;23.58;13.48;;;;;;;5.56;90.63;99039.09;5027304;28;20417;-67
2022/03/18 00:58:52;;;;;;;21.67;14.10;;;;;;;5.49;91.06;99044.34;5026117;28;20042;-65
2022/03/18 01:01:19;;;;;;;22.70;13.82;;;;;;;5.48;91.14;99040.00;5026906;28;20068;-66
2022/03/18 01:03:46;;;;;;;22.58;12.75;;;;;;;5.51;90.93;99036.13;5027178;28;20103;-66
2022/03/18 01:06:12;;;;;;;22.13;12.65;;;;;;;5.46;91.31;99032.13;5026252;28;20121;-67
2022/03/18 01:08:39;;;;;;;21.40;13.35;;;;;;;5.51;90.78;99039.66;5026375;28;20057;-69
2022/03/18 01:11:05;;;;;;;22.58;13.10;;;;;;;5.53;90.62;99037.63;5026356;28;20042;-68
2022/03/18 01:13:32;;;;;;;21.60;12.80;;;;;;;5.48;90.49;99040.00;5026968;28;20045;-66
2022/03/18 01:15:58;;;;;;;21.85;12.55;;;;;;;5.42;90.98;99036.16;5027090;28;20501;-65
2022/03/18 01:18:25;;;;;;;23.08;12.77;;;;;;;5.45;90.63;99041.19;5023993;28;20104;-67
2022/03/18 01:20:51;;;;;;;19.73;12.82;;;;;;;5.45;90.79;99048.41;5024214;28;20037;-68
2022/03/18 01:23:18;;;;;;;22.77;13.98;;;;;;;5.45;90.79;99045.72;5019656;28;20096;-66
2022/03/18 01:25:45;;;;;;;22.40;12.60;;;;;;;5.51;90.38;99047.72;5026450;28;20048;-66
2022/03/18 01:28:11;;;;;;;21.27;12.95;;;;;;;5.50;90.48;99045.19;5026642;28;20041;-66
2022/03/18 01:30:38;;;;;;;22.02;13.13;;;;;;;5.43;90.66;99040.56;5026295;28;20048;-68
2022/03/18 01:33:04;;;;;;;22.45;13.07;;;;;;;5.32;91.25;99046.31;5026929;28;20037;-65
2022/03/18 01:35:31;;;;;;;21.27;12.85;;;;;;;5.34;91.33;99039.75;5026529;28;20116;-66
2022/03/18 01:37:58;;;;;;;19.70;12.65;;;;;;;5.32;91.51;99036.41;5025893;28;20752;-68
2022/03/18 01:40:24;;;;;;;23.02;13.07;;;;;;;5.39;91.00;99041.06;5027179;28;20045;-66
2022/03/18 01:42:51;;;;;;;21.70;12.88;;;;;;;5.41;90.75;99047.09;5025973;28;20544;-66
2022/03/18 01:45:17;;;;;;;21.23;11.52;;;;;;;5.47;90.37;99047.25;5026250;28;20728;-65
2022/03/18 01:47:44;;;;;;;20.80;12.77;;;;;;;5.49;89.87;99047.03;5026523;28;20108;-67
2022/03/18 01:50:13;;;;;;;19.52;11.45;;;;;;;5.44;90.03;99052.13;5025735;28;20037;-66
2022/03/18 01:52:40;;;;;;;18.73;11.57;;;;;;;5.43;90.22;99037.88;5036445;28;20045;-67
2022/03/18 01:55:07;;;;;;;21.05;12.38;;;;;;;5.31;90.73;99048.16;5024744;28;20103;-70
2022/03/18 01:57:34;;;;;;;19.63;11.55;;;;;;;5.39;89.83;99047.28;5026601;28;20042;-66
2022/03/18 02:00:00;;;;;;;19.35;12.13;;;;;;;5.44;89.41;99049.44;5026010;28;20041;-68
2022/03/18 02:02:37;;;;;;;19.13;11.35;;;;;;;5.42;89.50;99046.91;5026000;28;20104;-68
2022/03/18 02:05:05;;;;;;;21.23;11.68;;;;;;;5.44;89.62;99046.75;5026515;28;20069;-66
2022/03/18 02:07:32;;;;;;;18.63;11.32;;;;;;;5.51;89.30;99053.09;5024759;28;20064;-66
2022/03/18 02:09:59;;;;;;;19.25;11.02;;;;;;;5.56;88.54;99055.22;5026473;28;20053;-67
2022/03/18 02:12:26;;;;;;;18.33;11.18;;;;;;;5.49;88.32;99055.09;5026222;28;20047;-65
2022/03/18 02:14:52;;;;;;;19.85;11.30;;;;;;;5.56;88.18;99057.91;5027555;28;20439;-65
2022/03/18 02:17:19;;;;;;;20.73;11.40;;;;;;;5.54;88.09;99059.97;5027976;28;20052;-67
2022/03/18 02:19:47;;;;;;;18.38;10.30;;;;;;;5.53;88.39;99069.03;5026735;28;20049;-65
2022/03/18 02:22:22;;;;;;;16.73;11.02;;;;;;;5.49;88.47;99063.16;5025158;28;20041;-66
2022/03/18 02:24:53;;;;;;;18.95;11.32;;;;;;;5.42;88.77;99067.59;5026011;28;20049;-66
2022/03/18 02:27:20;;;;;;;;;;;;;;;5.44;88.32;99068.22;5025205;28;20053;-64
2022/03/18 02:29:47;;;;;;;16.45;11.07;;;;;;;5.40;88.96;99072.28;5025503;28;19920;-66
2022/03/18 02:32:14;;;;;;;20.27;11.73;;;;;;;5.39;88.86;99068.78;5025546;28;20037;-67
2022/03/18 02:34:41;;;;;;;17.75;10.75;;;;;;;5.40;88.77;99066.91;5025466;28;20637;-66
2022/03/18 02:37:08;;;;;;;17.40;10.98;;;;;;;5.37;88.76;99064.56;5025035;28;20390;-66
2022/03/18 02:39:35;;;;;;;17.25;10.48;;;;;;;5.35;88.74;99064.78;5024598;28;20080;-65
2022/03/18 02:42:02;;;;;;;20.05;10.30;;;;;;;5.34;88.73;99065.75;5025585;28;20041;-69
2022/03/18 02:44:29;;;;;;;16.75;10.18;;;;;;;5.39;88.43;99067.94;5032964;28;20056;-66
2022/03/18 02:46:58;;;;;;;18.73;10.70;;;;;;;5.39;88.69;99067.94;5018476;28;20037;-66
2022/03/18 02:49:25;;;;;;;17.52;10.65;;;;;;;5.30;89.29;99073.34;5012000;28;20044;-66
2022/03/18 02:51:52;;;;;;;19.38;10.98;;;;;;;5.29;88.89;99077.06;5023275;28;20048;-68
2022/03/18 02:54:19;;;;;;;19.00;11.00;;;;;;;5.27;89.16;99075.56;5024815;28;20034;-66
2022/03/18 02:56:45;;;;;;;16.70;10.45;;;;;;;5.17;89.42;99075.75;5024709;28;20041;-65
2022/03/18 02:59:12;;;;;;;16.33;10.07;;;;;;;5.21;88.96;99083.28;5025347;28;20064;-68
2022/03/18 03:01:39;;;;;;;17.63;10.10;;;;;;;5.30;88.61;99083.25;5030514;28;20048;-66
2022/03/18 03:04:07;;;;;;;15.57;10.10;;;;;;;5.23;88.81;99085.78;5023504;28;20124;-67
2022/03/18 03:09:32;;;;;;;19.05;9.88;;;;;;;5.23;88.16;99088.47;5022899;28;20053;-69
2022/03/18 03:11:59;;;;;;;19.38;10.60;;;;;;;5.11;89.31;99089.88;5025365;28;20205;-67
2022/03/18 03:14:25;;;;;;;17.48;9.95;;;;;;;5.15;88.84;99094.72;5024041;28;20076;-66
2022/03/18 03:16:52;;;;;;;14.73;9.45;;;;;;;5.23;88.53;99099.22;5025080;28;20483;-67
2022/03/18 03:19:19;;;;;;;17.92;10.32;;;;;;;5.19;88.70;99097.91;5025263;28;20038;-66
2022/03/18 03:21:46;;;;;;;16.45;8.93;;;;;;;5.22;88.18;99094.88;5024560;28;20671;-65
2022/03/18 03:24:13;;;;;;;17.35;9.50;;;;;;;5.26;88.14;99100.72;5024914;28;20045;-68
2022/03/18 03:26:40;;;;;;;17.23;9.80;;;;;;;5.27;87.31;99103.22;5025357;28;20504;-67
2022/03/18 03:29:06;;;;;;;17.30;9.82;;;;;;;5.16;88.33;99101.78;5023932;28;20041;-66
2022/03/18 03:31:33;;;;;;;14.35;8.93;;;;;;;5.21;88.07;99120.06;5027178;28;20048;-66
2022/03/18 03:34:00;;;;;;;13.05;8.50;;;;;;;5.23;87.27;99111.84;5028410;28;20752;-65
2022/03/18 03:36:27;;;;;;;16.15;9.02;;;;;;;5.24;87.89;99121.56;5027888;28;20049;-67
2022/03/18 03:38:54;;;;;;;16.17;8.80;;;;;;;5.23;87.58;99120.72;5028056;28;20053;-66
2022/03/18 03:41:22;;;;;;;15.88;8.95;;;;;;;5.03;89.23;99115.75;5027554;28;20048;-66
2022/03/18 03:43:51;;;;;;;16.83;9.07;;;;;;;5.06;88.22;99114.56;5028594;28;20060;-68
2022/03/18 03:46:18;;;;;;;15.07;8.90;;;;;;;5.10;88.29;99113.22;5026976;28;20460;-67
2022/03/18 03:48:44;;;;;;;16.20;9.30;;;;;;;5.06;88.49;99115.41;5027112;28;20049;-67
2022/03/18 03:51:11;;;;;;;15.52;9.02;;;;;;;5.10;88.21;99118.59;5027875;28;20048;-68
2022/03/18 03:53:38;;;;;;;15.57;8.70;;;;;;;5.16;88.24;99123.25;5027429;28;20045;-69
2022/03/18 03:56:04;;;;;;;16.90;9.23;;;;;;;5.03;88.63;99125.66;5028253;28;20045;-68
2022/03/18 03:58:31;;;;;;;15.70;8.57;;;;;;;5.08;88.08;99124.13;5019748;28;20041;-66
2022/03/18 04:00:58;;;;;;;14.52;8.73;;;;;;;5.05;88.17;99127.16;5026981;28;20106;-67
2022/03/18 04:03:24;;;;;;;15.63;8.82;;;;;;;4.92;89.52;99129.53;5026782;28;20080;-68
2022/03/18 04:05:51;;;;;;;18.15;10.40;;;;;;;4.92;89.36;99130.38;5027041;28;20069;-67
2022/03/18 04:08:17;;;;;;;12.38;8.43;;;;;;;5.02;88.52;99132.03;5028167;28;20049;-66
2022/03/18 04:10:44;;;;;;;16.45;8.88;;;;;;;5.09;87.76;99135.72;5027796;28;20107;-66
2022/03/18 04:13:10;;;;;;;16.38;9.18;;;;;;;5.00;88.56;99134.03;5027865;28;20053;-68
2022/03/18 04:15:38;;;;;;;14.48;8.40;;;;;;;4.89;89.21;99141.47;5033990;28;20049;-65
2022/03/18 04:18:05;;;;;;;17.33;9.30;;;;;;;4.98;88.33;99142.28;5026430;28;20095;-65
2022/03/18 04:20:33;;;;;;;15.88;8.88;;;;;;;4.98;88.35;99147.66;5027717;28;20034;-66
2022/03/18 04:23:00;;;;;;;15.43;7.57;;;;;;;4.97;88.80;99150.50;5027193;28;20456;-65
2022/03/18 04:25:27;;;;;;;13.98;8.05;;;;;;;5.00;87.67;99152.84;5025079;28;20049;-67
2022/03/18 04:27:53;;;;;;;15.63;8.93;;;;;;;5.05;87.68;99161.22;5026607;28;20041;-67
2022/03/18 04:30:20;;;;;;;14.25;8.68;;;;;;;5.02;88.17;99166.94;5033171;28;20052;-65
2022/03/18 04:32:46;;;;;;;13.00;8.75;;;;;;;4.98;88.17;99174.50;5027815;28;20046;-65
2022/03/18 04:35:13;;;;;;;15.90;8.93;;;;;;;5.01;87.75;99170.63;5027532;28;20041;-67
2022/03/18 04:37:41;;;;;;;11.88;7.60;;;;;;;5.04;87.55;99176.50;5027054;28;20041;-66
2022/03/18 04:40:10;;;;;;;12.80;7.85;;;;;;;5.01;87.47;99168.78;5027333;28;20055;-67
2022/03/18 04:42:38;;;;;;;17.10;8.57;;;;;;;5.01;87.46;99173.31;5025763;28;20115;-66
2022/03/18 04:45:05;;;;;;;15.20;9.13;;;;;;;5.06;87.25;99177.16;5028388;28;20063;-65
2022/03/18 04:47:33;;;;;;;13.85;7.97;;;;;;;5.12;86.41;99180.19;5029111;28;20449;-65
2022/03/18 04:50:00;;;;;;;14.30;8.48;;;;;;;5.10;86.84;99185.72;5022988;28;20128;-65
2022/03/18 04:52:27;;;;;;;16.27;8.00;;;;;;;5.13;86.41;99179.16;5026942;28;20038;-65
2022/03/18 04:54:54;;;;;;;15.50;8.45;;;;;;;4.96;87.61;99184.56;5026455;28;20061;-68
2022/03/18 04:57:20;;;;;;;14.75;8.85;;;;;;;4.98;87.01;99193.31;5026021;28;20048;-65
2022/03/18 04:59:49;;;;;;;17.13;8.55;;;;;;;4.88;88.01;99187.25;5027058;28;20089;-66
2022/03/18 05:02:16;;;;;;;14.10;8.07;;;;;;;4.88;88.05;99187.25;5027108;28;20049;-66
2022/03/18 05:04:44;;;;;;;15.48;8.07;;;;;;;4.90;87.52;99191.44;5026902;28;20091;-66
2022/03/18 05:07:11;;;;;;;17.08;8.45;;;;;;;4.87;88.21;99194.47;5025467;28;20055;-65
2022/03/18 05:09:39;;;;;;;12.65;7.47;;;;;;;4.96;87.45;99198.00;5026821;28;20084;-66
2022/03/18 05:12:10;;;;;;;16.77;9.07;;;;;;;4.88;88.04;99201.53;5025980;28;20057;-68
2022/03/18 05:14:38;;;;;;;15.13;8.05;;;;;;;4.92;87.72;99197.50;5026893;28;20524;-65
2022/03/18 05:17:05;;;;;;;14.77;8.25;;;;;;;4.90;88.00;99209.41;5038387;28;20053;-66
2022/03/18 05:19:32;;;;;;;16.50;7.75;;;;;;;4.95;87.26;99209.75;5025961;28;20513;-67
2022/03/18 05:21:59;;;;;;;13.23;7.85;;;;;;;4.94;87.48;99202.69;5026746;28;20052;-66
2022/03/18 05:24:26;;;;;;;17.50;8.80;;;;;;;4.80;88.23;99214.97;5026164;28;20400;-65
2022/03/18 05:26:56;;;;;;;13.63;7.93;;;;;;;4.73;88.50;99222.84;5025955;28;20464;-68
2022/03/18 05:29:25;;;;;;;13.20;7.68;;;;;;;4.67;88.79;99229.72;5026412;28;20048;-67
2022/03/18 05:31:52;;;;;;;18.25;9.10;;;;;;;4.72;88.56;99223.84;5026565;28;20041;-66
2022/03/18 05:34:21;;;;;;;15.93;8.88;;;;;;;4.84;87.90;99223.50;5024358;28;20045;-66
2022/03/18 05:36:47;;;;;;;16.20;8.85;;;;;;;4.86;87.62;99229.56;5025961;28;20041;-65
2022/03/18 05:39:15;;;;;;;14.95;8.07;;;;;;;4.85;87.77;99236.75;5023483;28;20475;-67
2022/03/18 05:41:45;;;;;;;14.75;9.20;;;;;;;4.84;87.86;99229.72;5025196;28;20045;-67
2022/03/18 05:44:12;;;;;;;18.50;8.75;;;;;;;4.85;87.38;99226.03;5026065;28;20120;-66
2022/03/18 05:46:44;;;;;;;14.30;8.27;;;;;;;4.89;87.50;99231.88;5026431;28;20128;-66
2022/03/18 05:49:11;;;;;;;15.57;7.88;;;;;;;4.94;86.92;99233.06;5025957;28;20060;-68
2022/03/18 05:51:38;;;;;;;15.07;8.45;;;;;;;4.90;87.30;99244.31;5025050;28;20052;-67
2022/03/18 05:54:04;;;;;;;17.60;8.95;;;;;;;4.81;87.89;99247.00;5024002;28;20075;-69
2022/03/18 05:59:17;;;;;;;17.30;8.63;;;;;;;4.74;88.37;99256.72;5023861;28;20045;-66
2022/03/18 06:01:44;;;;;;;15.05;8.70;;;;;;;4.75;88.46;99250.34;5023155;28;20048;-66
2022/03/18 06:04:12;;;;;;;17.33;9.25;;;;;;;4.76;88.17;99259.25;5024488;28;20501;-67
2022/03/18 06:06:40;;;;;;;19.65;10.63;;;;;;;4.72;88.48;99258.72;5021329;28;20103;-67
2022/03/18 06:11:53;;;;;;;15.45;8.40;;;;;;;4.81;88.00;99259.56;5023785;28;20052;-68
2022/03/18 06:14:23;;;;;;;16.13;9.13;;;;;;;4.79;88.14;99259.72;5022755;28;20046;-68
2022/03/18 06:16:52;;;;;;;17.30;9.13;;;;;;;4.86;87.52;99264.44;5022844;28;20050;-66
2022/03/18 06:19:20;;;;;;;17.15;10.55;;;;;;;4.73;88.43;99259.56;5023596;28;20052;-66
2022/03/18 06:21:47;;;;;;;20.13;9.18;;;;;;;4.79;88.06;99265.09;5033449;28;20072;-65
2022/03/18 06:24:15;;;;;;;19.45;10.18;;;;;;;4.71;88.28;99264.28;5023627;28;20056;-66
2022/03/18 06:26:42;;;;;;;18.42;9.75;;;;;;;4.75;88.51;99273.66;5018969;28;20049;-68
2022/03/18 06:29:09;;;;;;;18.60;9.60;;;;;;;4.85;87.91;99277.03;5019417;28;20060;-68
2022/03/18 06:31:36;;;;;;;19.00;9.05;;;;;;;4.91;87.36;99270.97;5023343;28;20049;-67
2022/03/18 06:34:03;;;;;;;18.92;10.25;;;;;;;4.97;87.26;99274.00;5022377;28;20087;-67
2022/03/18 06:36:31;;;;;;;17.20;9.48;;;;;;;5.04;86.71;99270.47;5024254;28;20056;-66
2022/03/18 06:38:57;;;;;;;17.08;9.07;;;;;;;5.00;87.18;99284.38;5022747;28;20057;-66
2022/03/18 06:41:25;;;;;;;19.13;10.70;;;;;;;5.08;86.52;99279.88;5028709;28;20037;-66
2022/03/18 06:43:51;;;;;;;17.73;10.15;;;;;;;5.04;86.84;99281.22;5030763;28;20068;-67
2022/03/18 06:46:18;;;;;;;16.80;9.23;;;;;;;5.00;87.30;99287.06;5012931;28;20042;-65
2022/03/18 06:48:45;;;;;;;21.05;10.45;;;;;;;5.10;86.39;99277.00;5027383;28;20580;-66
2022/03/18 06:51:11;;;;;;;19.85;10.57;;;;;;;4.94;87.57;99294.78;5022488;28;20045;-67
2022/03/18 06:53:38;;;;;;;20.73;11.32;;;;;;;5.00;87.69;99289.75;5023316;28;20037;-67
2022/03/18 06:56:06;;;;;;;19.08;10.38;;;;;;;4.99;87.19;99296.13;5022896;28;20041;-68
2022/03/18 06:58:34;;;;;;;23.00;11.43;;;;;;;5.01;87.00;99296.81;5017286;28;20060;-68
2022/03/18 07:01:00;;;;;;;18.13;10.38;;;;;;;5.05;86.50;99301.69;5020502;28;20068;-67
2022/03/18 07:03:27;;;;;;;19.98;11.35;;;;;;;5.02;87.41;99307.38;5015174;28;20033;-68
2022/03/18 07:05:54;;;;;;;20.88;11.45;;;;;;;5.05;86.89;99304.34;5022104;28;20088;-67
2022/03/18 07:08:21;;;;;;;16.80;9.95;;;;;;;5.11;86.46;99310.06;5024059;28;20045;-70
2022/03/18 07:10:47;;;;;;;23.90;11.80;;;;;;;5.00;87.16;99312.09;5025239;28;20056;-68
2022/03/18 07:13:15;;;;;;;21.92;12.48;;;;;;;4.98;87.31;99318.63;5026825;28;20045;-67
2022/03/18 07:15:42;;;;;;;22.75;11.52;;;;;;;5.12;86.56;99319.81;5030584;28;20467;-65
2022/03/18 07:18:09;;;;;;;18.83;10.27;;;;;;;5.12;86.50;99315.25;5026305;28;20057;-65
2022/03/18 07:20:37;;;;;;;18.58;10.82;;;;;;;5.13;86.52;99322.34;5038452;28;20052;-66
2022/03/18 07:23:05;;;;;;;18.50;10.10;;;;;;;5.20;86.41;99312.56;5027519;28;20037;-67
2022/03/18 07:25:34;;;;;;;18.70;10.93;;;;;;;5.13;87.15;99310.75;5031818;28;20444;-70
2022/03/18 07:28:01;;;;;;;21.17;11.48;;;;;;;5.13;86.60;99308.91;5027313;28;20041;-67
2022/03/18 07:30:27;;;;;;;19.92;9.95;;;;;;;5.29;85.82;99312.56;5026728;28;20037;-66
2022/03/18 07:32:54;;;;;;;20.00;12.10;;;;;;;5.19;86.47;99324.34;5029418;28;20122;-66
2022/03/18 07:35:21;;;;;;;18.20;9.82;;;;;;;5.38;85.55;99316.91;5028264;28;20041;-67
2022/03/18 07:37:48;;;;;;;19.50;11.25;;;;;;;5.36;85.35;99304.66;5028970;28;20045;-66
2022/03/18 07:40:18;;;;;;;19.98;10.75;;;;;;;5.40;85.42;99314.06;5027823;28;20045;-67
2022/03/18 07:42:50;;;;;;;23.73;12.35;;;;;;;5.26;86.01;99326.34;5029101;28;20052;-67
2022/03/18 07:45:21;;;;;;;20.95;10.82;;;;;;;5.41;84.87;99321.13;5028518;28;20584;-67
2022/03/18 07:47:52;;;;;;;21.48;11.13;;;;;;;5.53;84.53;99319.75;5028475;28;20120;-65
2022/03/18 07:50:20;;;;;;;18.35;10.02;;;;;;;5.57;84.49;99325.66;5028326;28;20045;-65
2022/03/18 07:52:48;;;;;;;18.30;10.73;;;;;;;5.71;84.04;99329.44;5027055;28;20505;-67
2022/03/18 07:55:21;;;;;;;21.83;11.95;;;;;;;5.51;84.99;99327.16;5010109;28;20056;-67
2022/03/18 07:57:48;;;;;;;19.60;10.85;;;;;;;5.55;84.70;99336.56;5028412;28;20124;-66
2022/03/18 08:00:16;;;;;;;19.80;10.75;;;;;;;5.72;83.85;99337.34;5027974;28;20041;-65
2022/03/18 08:02:44;;;;;;;21.55;11.07;;;;;;;5.67;83.95;99334.34;5029035;28;20498;-67
2022/03/18 08:05:11;;;;;;;22.65;11.93;;;;;;;5.63;84.32;99332.19;5027700;28;20190;-66
2022/03/18 08:07:39;;;;;;;27.02;13.35;;;;;;;5.59;84.88;99340.59;5027591;28;20111;-66
2022/03/18 08:10:08;;;;;;;23.00;11.95;;;;;;;5.79;83.99;99331.31;5027833;28;20109;-66
2022/03/18 08:12:35;;;;;;;24.63;12.23;;;;;;;5.80;84.61;99341.88;5027429;28;20493;-66
2022/03/18 08:15:08;;;;;;;22.48;13.13;;;;;;;5.87;83.97;99344.72;5031618;28;20040;-66
2022/03/18 08:17:36;;;;;;;24.05;12.90;;;;;;;5.89;83.92;99352.63;5037320;28;20037;-66
2022/03/18 08:20:03;;;;;;;19.92;11.48;;;;;;;6.10;82.18;99358.28;5027839;28;20045;-66
2022/03/18 08:22:29;;;;;;;24.48;12.50;;;;;;;6.20;82.31;99355.38;5027728;28;20520;-66
2022/03/18 08:24:56;;;;;;;23.40;12.43;;;;;;;6.44;81.05;99350.91;5027665;28;20605;-65
2022/03/18 08:27:22;;;;;;;20.35;11.50;;;;;;;6.32;81.16;99355.00;5027759;28;20341;-66
2022/03/18 08:29:49;;;;;;;24.00;12.90;;;;;;;6.25;82.48;99354.88;5027558;28;20050;-64
2022/03/18 08:32:17;;;;;;;23.63;14.10;;;;;;;6.08;83.07;99352.22;5028134;28;20037;-68
2022/03/18 08:34:44;;;;;;;22.77;13.38;;;;;;;6.30;81.37;99352.47;5027110;28;20393;-66
2022/03/18 08:37:11;;;;;;;23.73;13.60;;;;;;;6.25;81.13;99360.25;5044807;28;20044;-66
2022/03/18 08:39:38;;;;;;;22.70;13.05;;;;;;;6.50;79.92;99360.13;5035122;28;20053;-65
2022/03/18 08:42:05;;;;;;;24.20;12.93;;;;;;;6.17;81.92;99354.91;5027409;28;20068;-67
2022/03/18 08:44:31;;;;;;;26.45;14.80;;;;;;;6.09;81.66;99361.97;5026989;28;20052;-66
2022/03/18 08:46:58;;;;;;;26.88;14.27;;;;;;;6.19;81.29;99363.66;5026447;28;20064;-64
2022/03/18 08:49:24;;;;;;;33.05;17.70;;;;;;;6.19;82.16;99369.84;5021882;28;20037;-65
2022/03/18 08:51:51;;;;;;;34.05;18.52;;;;;;;6.23;81.72;99371.19;5026130;28;20054;-65
2022/03/18 08:54:21;;;;;;;24.45;12.90;;;;;;;6.34;80.88;99372.63;5023999;28;20044;-67
2022/03/18 08:56:48;;;;;;;26.65;13.73;;;;;;;6.44;80.90;99369.75;5029530;28;20049;-63
2022/03/18 08:59:15;;;;;;;25.00;12.80;;;;;;;6.69;79.37;99377.69;5022924;28;20053;-70
2022/03/18 09:01:42;;;;;;;26.25;12.88;;;;;;;6.89;78.42;99386.16;5024943;28;20045;-66
2022/03/18 09:04:09;;;;;;;27.25;12.30;;;;;;;6.88;78.49;99379.09;5024422;28;20052;-68
2022/03/18 09:06:36;;;;;;;21.45;13.52;;;;;;;6.70;78.00;99381.22;5017963;28;20603;-66
2022/03/18 09:09:04;;;;;;;21.88;12.82;;;;;;;6.44;78.99;99387.72;5028061;28;20045;-69
2022/03/18 09:11:31;;;;;;;20.70;11.82;;;;;;;6.71;78.18;99383.72;5031739;28;20053;-69
2022/03/18 09:13:58;;;;;;;23.73;13.38;;;;;;;6.98;76.94;99383.41;5031051;28;20049;-64
2022/03/18 09:16:24;;;;;;;26.67;13.18;;;;;;;7.01;78.81;99385.75;5032840;28;20037;-67
2022/03/18 09:18:59;;;;;;;23.25;12.90;;;;;;;7.23;76.45;99384.06;5024282;28;20053;-67
2022/03/18 09:21:26;;;;;;;22.45;13.48;;;;;;;7.01;77.13;99389.25;5025667;28;20048;-67
2022/03/18 09:23:52;;;;;;;26.65;14.63;;;;;;;7.20;76.76;99388.97;5024262;28;20049;-65
2022/03/18 09:26:19;;;;;;;24.20;12.35;;;;;;;7.52;75.06;99395.13;5024490;28;20049;-67
2022/03/18 09:28:46;;;;;;;23.92;12.88;;;;;;;7.68;73.93;99389.56;5016761;28;20536;-67
2022/03/18 09:31:13;;;;;;;22.92;13.23;;;;;;;7.80;75.76;99391.81;5016715;28;20076;-69
2022/03/18 09:33:43;;;;;;;24.30;13.65;;;;;;;7.08;76.83;99400.16;5023993;28;20496;-68
2022/03/18 09:36:10;;;;;;;24.77;13.02;;;;;;;7.35;75.64;99405.19;5024358;28;20052;-66
2022/03/18 09:38:37;;;;;;;28.55;14.20;;;;;;;7.48;74.60;99407.31;5023906;28;20541;-68
2022/03/18 09:41:06;;;;;;;27.13;13.95;;;;;;;7.59;73.21;99414.13;5024965;28;20544;-69
2022/03/18 09:43:35;;;;;;;28.30;15.18;;;;;;;7.04;75.21;99401.53;5041096;28;20044;-68
2022/03/18 09:46:07;;;;;;;26.52;14.38;;;;;;;7.19;74.25;99400.78;5023426;28;20053;-67
2022/03/18 09:48:54;;;;;;;;;;;;;;;7.67;73.54;99404.06;5024587;28;20544;-67
2022/03/18 09:51:20;;;;;;;31.83;17.90;;;;;;;7.28;75.69;99403.25;5024197;28;19921;-66
2022/03/18 09:54:11;;;;;;;27.23;15.20;;;;;;;7.47;74.38;99411.00;5010190;28;20152;-67
2022/03/18 09:56:43;;;;;;;26.17;16.43;;;;;;;7.59;73.90;99401.44;5023877;28;20133;-70
2022/03/18 09:59:10;;;;;;;27.85;16.80;;;;;;;7.64;74.88;99411.69;5032038;28;20279;-68
2022/03/18 10:01:37;;;;;;;28.90;15.85;;;;;;;7.50;73.85;99405.25;5029510;28;20050;-66
2022/03/18 10:04:10;;;;;;;27.83;14.95;;;;;;;7.66;72.74;99405.09;5024691;28;20049;-67
2022/03/18 10:06:38;;;;;;;31.52;17.67;;;;;;;7.67;73.04;99411.34;5023077;28;20128;-67
2022/03/18 10:09:05;;;;;;;28.63;15.95;;;;;;;7.78;72.89;99415.47;5024140;28;20049;-67
2022/03/18 10:11:37;;;;;;;29.73;16.67;;;;;;;7.93;72.19;99404.69;5017975;28;20053;-66
2022/03/18 10:14:07;;;;;;;30.58;15.93;;;;;;;8.07;71.07;99424.59;5023578;28;20107;-67
2022/03/18 10:16:41;;;;;;;31.13;15.65;;;;;;;8.04;71.45;99414.19;5024132;28;20056;-67
2022/03/18 10:19:16;;;;;;;29.58;17.40;;;;;;;8.16;70.94;99415.41;5023609;28;20088;-67
2022/03/18 10:21:53;;;;;;;29.63;17.38;;;;;;;8.41;70.52;99407.00;5018037;28;20045;-67
2022/03/18 10:24:27;;;;;;;29.25;16.45;;;;;;;8.37;71.33;99403.00;5015008;28;20428;-65
2022/03/18 10:27:13;;;;;;;29.30;16.55;;;;;;;8.82;68.72;99418.34;5023483;28;20052;-68
2022/03/18 10:30:07;;;;;;;29.92;16.10;;;;;;;8.49;69.56;99418.72;5022273;28;20133;-67
2022/03/18 10:32:45;;;;;;;30.85;17.70;;;;;;;8.29;70.14;99422.03;5017375;28;20711;-67
2022/03/18 10:38:43;;;;;;;28.60;16.55;;;;;;;8.65;68.85;99412.31;5013040;28;20045;-67
2022/03/18 10:41:23;;;;;;;33.60;16.98;;;;;;;8.95;67.70;99415.78;5025225;28;20053;-69
2022/03/18 10:43:52;;;;;;;31.38;17.55;;;;;;;8.91;67.57;99428.00;5022063;28;20100;-68
2022/03/18 10:46:19;;;;;;;33.25;18.02;;;;;;;8.94;67.89;99415.97;5035548;28;20116;-66
2022/03/18 10:49:03;;;;;;;30.88;17.60;;;;;;;8.94;67.29;99421.38;5032123;28;20103;-67
2022/03/18 10:51:31;;;;;;;35.90;19.90;;;;;;;8.43;68.80;99412.22;5027975;28;20049;-67
2022/03/18 10:53:58;;;;;;;36.88;18.02;;;;;;;8.13;70.14;99428.41;5027240;28;20622;-66
2022/03/18 10:56:25;;;;;;;31.55;17.27;;;;;;;8.43;69.01;99421.16;5027474;28;20480;-67
2022/03/18 10:58:52;;;;;;;26.80;17.30;;;;;;;8.70;68.15;99416.13;5027513;28;20733;-67
2022/03/18 11:01:20;;;;;;;35.40;18.67;;;;;;;8.76;68.77;99417.25;5027727;28;20053;-67
2022/03/18 11:03:47;;;;;;;36.00;19.10;;;;;;;8.41;69.95;99415.09;5030460;28;20049;-66
2022/03/18 11:06:16;;;;;;;30.40;18.20;;;;;;;8.78;67.98;99423.31;5027435;28;20055;-69
2022/03/18 11:08:48;;;;;;;30.48;17.55;;;;;;;8.63;68.20;99420.63;5027029;28;20041;-68
2022/03/18 11:11:17;;;;;;;30.50;18.73;;;;;;;8.72;68.44;99415.94;5028063;28;20114;-67
2022/03/18 11:14:06;;;;;;;32.90;19.33;;;;;;;8.69;67.68;99419.84;5048979;28;20036;-67
2022/03/18 11:16:44;;;;;;;31.75;18.25;;;;;;;8.45;69.29;99434.47;5039311;28;20060;-67
2022/03/18 11:19:14;;;;;;;35.15;18.70;;;;;;;8.53;69.22;99428.16;5035993;28;20433;-67
2022/03/18 11:21:41;;;;;;;31.35;19.17;;;;;;;8.44;68.62;99425.53;5026972;28;20643;-65
2022/03/18 11:24:11;;;;;;;33.45;19.80;;;;;;;8.46;68.36;99425.34;5027142;28;20053;-68
2022/03/18 11:26:46;;;;;;;30.90;18.38;;;;;;;8.42;68.44;99430.28;5016572;28;20042;-68
2022/03/18 11:29:22;;;;;;;35.10;19.73;;;;;;;8.25;69.20;99426.13;5014981;28;20045;-69
2022/03/18 11:32:15;;;;;;;35.72;18.73;;;;;;;8.46;69.43;99422.66;5026531;28;20056;-67
2022/03/18 11:34:50;;;;;;;29.27;17.67;;;;;;;8.18;70.04;99415.19;5027032;28;20053;-67
2022/03/18 11:37:19;;;;;;;31.73;18.25;;;;;;;8.54;68.72;99411.78;5027136;28;20119;-69
2022/03/18 11:39:47;;;;;;;34.05;18.02;;;;;;;8.77;68.41;99418.09;5025893;28;20037;-67
2022/03/18 11:42:23;;;;;;;36.30;21.00;;;;;;;8.43;69.15;99412.22;5025242;28;20038;-68
2022/03/18 11:44:56;;;;;;;31.58;20.00;;;;;;;8.13;69.85;99410.38;5026316;28;20099;-67
2022/03/18 11:47:31;;;;;;;35.90;21.52;;;;;;;8.12;69.62;99408.72;5028235;28;20451;-67
2022/03/18 11:50:41;;;;;;;39.33;19.40;;;;;;;8.49;68.29;99402.53;5034061;28;20457;-69
2022/03/18 11:53:12;;;;;;;34.60;19.88;;;;;;;8.49;68.04;99407.94;5013159;28;20041;-67